Time;durP1;ratioP1;P1;durP2;ratioP2;P2;SDS_P1;SDS_P2;PMS_P1;PMS_P2;Temp;Humidity;BMP_temperature;BMP_pressure;BME280_temperature;BME280_humidity;BME280_pressure;Samples;Min_cycle;Max_cycle;Signal;HPM_P1;HPM_P2
2022/07/25 00:01:24;;;;;;;16.63;15.23;;;20.40;99.90;;;;;;5040592;28;20471;-66
2022/07/25 00:03:53;;;;;;;16.17;14.77;;;20.50;99.90;;;;;;5036714;28;20468;-67
2022/07/25 00:06:20;;;;;;;17.40;15.67;;;20.60;99.90;;;;;;5035732;28;20906;-67
2022/07/25 00:08:46;;;;;;;16.57;15.17;;;20.70;99.90;;;;;;5037622;28;20495;-67
2022/07/25 00:11:15;;;;;;;16.43;14.73;;;20.90;99.90;;;;;;5039696;28;20467;-67
2022/07/25 00:13:42;;;;;;;17.50;15.67;;;20.80;99.90;;;;;;5038530;28;20832;-67
2022/07/25 00:16:09;;;;;;;17.30;15.80;;;20.60;99.90;;;;;;5042243;28;20483;-66
2022/07/25 00:18:36;;;;;;;17.30;15.60;;;20.50;99.90;;;;;;5042484;28;20467;-68
2022/07/25 00:21:05;;;;;;;16.70;15.30;;;20.40;99.90;;;;;;5042856;28;20833;-67
2022/07/25 00:23:32;;;;;;;16.73;14.87;;;20.40;99.90;;;;;;5035411;28;20457;-67
2022/07/25 00:25:59;;;;;;;16.60;15.30;;;20.30;99.90;;;;;;5036008;28;20467;-67
2022/07/25 00:28:26;;;;;;;17.23;15.73;;;20.20;99.90;;;;;;5041367;28;20487;-67
2022/07/25 00:30:53;;;;;;;17.03;15.43;;;20.10;99.90;;;;;;5037090;28;20468;-67
2022/07/25 00:33:20;;;;;;;16.80;15.30;;;20.00;99.90;;;;;;5034376;28;20468;-67
2022/07/25 00:35:47;;;;;;;16.10;14.60;;;19.90;99.90;;;;;;5040929;28;20523;-67
2022/07/25 00:38:15;;;;;;;16.80;15.13;;;19.90;99.90;;;;;;5044171;28;20884;-67
2022/07/25 00:40:43;;;;;;;18.00;16.53;;;19.70;99.90;;;;;;5038862;28;20459;-67
2022/07/25 00:43:11;;;;;;;20.13;15.77;;;19.60;99.90;;;;;;5040932;28;20470;-67
2022/07/25 00:45:39;;;;;;;17.70;16.10;;;19.50;99.90;;;;;;5039245;28;20464;-66
2022/07/25 00:48:07;;;;;;;17.63;16.13;;;19.50;99.90;;;;;;5033053;28;20479;-67
2022/07/25 00:50:36;;;;;;;16.93;15.33;;;19.40;99.90;;;;;;5043054;28;20463;-67
2022/07/25 00:53:04;;;;;;;17.63;15.97;;;19.30;99.90;;;;;;5041619;28;20982;-67
2022/07/25 00:55:32;;;;;;;22.07;16.20;;;19.30;99.90;;;;;;5036061;28;20477;-67
2022/07/25 00:58:00;;;;;;;18.13;16.53;;;19.20;99.90;;;;;;5036053;28;21026;-66
2022/07/25 01:00:27;;;;;;;18.33;16.53;;;19.20;99.90;;;;;;5040011;28;20510;-66
2022/07/25 01:02:55;;;;;;;17.33;15.73;;;19.20;99.90;;;;;;5036405;28;20877;-67
2022/07/25 01:05:23;;;;;;;17.03;15.53;;;19.20;99.90;;;;;;5043706;28;20468;-67
2022/07/25 01:07:51;;;;;;;17.53;16.00;;;19.20;99.90;;;;;;5037878;28;20464;-67
2022/07/25 01:10:18;;;;;;;17.73;15.17;;;19.10;99.90;;;;;;5040812;28;21118;-67
2022/07/25 01:12:50;;;;;;;18.83;15.30;;;19.10;99.90;;;;;;5033591;28;20874;-67
2022/07/25 01:15:18;;;;;;;16.57;14.77;;;19.10;99.90;;;;;;5046315;28;20521;-67
2022/07/25 01:17:44;;;;;;;16.23;14.63;;;19.10;99.90;;;;;;5041757;28;20467;-67
2022/07/25 01:20:15;;;;;;;18.10;15.57;;;19.10;99.90;;;;;;5035989;28;20460;-67
2022/07/25 01:22:42;;;;;;;17.60;15.57;;;19.10;99.90;;;;;;5039709;28;20467;-67
2022/07/25 01:25:10;;;;;;;21.90;15.07;;;19.10;99.90;;;;;;5033709;28;20460;-66
2022/07/25 01:27:37;;;;;;;20.63;16.40;;;19.10;99.90;;;;;;5042039;28;20492;-67
2022/07/25 01:30:06;;;;;;;16.87;15.27;;;19.10;99.90;;;;;;5040958;28;20491;-66
2022/07/25 01:32:34;;;;;;;16.87;15.57;;;19.10;99.90;;;;;;5045801;28;20463;-68
2022/07/25 01:35:01;;;;;;;17.80;16.07;;;19.10;99.90;;;;;;5041132;28;20843;-66
2022/07/25 01:37:30;;;;;;;17.37;15.60;;;19.10;99.90;;;;;;5042466;28;20959;-67
2022/07/25 01:39:57;;;;;;;19.23;16.00;;;19.10;99.90;;;;;;5043524;28;20480;-67
2022/07/25 01:42:23;;;;;;;18.27;15.97;;;19.00;99.90;;;;;;5039919;28;20467;-67
2022/07/25 01:44:51;;;;;;;17.73;15.90;;;19.00;99.90;;;;;;5050493;28;20461;-66
2022/07/25 01:47:18;;;;;;;18.20;16.53;;;19.00;99.90;;;;;;5045005;28;20473;-67
2022/07/25 01:49:46;;;;;;;16.90;15.43;;;19.00;99.90;;;;;;5039236;28;20561;-67
2022/07/25 01:52:13;;;;;;;17.30;15.70;;;19.00;99.90;;;;;;5040000;28;20471;-67
2022/07/25 01:54:42;;;;;;;17.63;14.03;;;18.90;99.90;;;;;;5043015;28;20466;-67
2022/07/25 01:57:11;;;;;;;16.57;14.90;;;18.90;99.90;;;;;;5038203;28;20816;-66
2022/07/25 01:59:40;;;;;;;26.03;17.20;;;18.90;99.90;;;;;;5045916;28;20830;-66
2022/07/25 02:02:08;;;;;;;19.37;15.87;;;18.90;99.90;;;;;;5049360;28;20466;-67
2022/07/25 02:04:35;;;;;;;18.83;17.03;;;18.90;99.90;;;;;;5042385;28;20460;-66
2022/07/25 02:07:03;;;;;;;21.77;16.30;;;18.90;99.90;;;;;;5041591;28;20468;-67
2022/07/25 02:09:30;;;;;;;18.57;16.33;;;18.90;99.90;;;;;;5042898;28;20500;-66
2022/07/25 02:11:58;;;;;;;17.73;16.00;;;18.80;99.90;;;;;;5042485;28;20467;-66
2022/07/25 02:14:26;;;;;;;17.23;15.13;;;18.80;99.90;;;;;;5048230;28;20845;-67
2022/07/25 02:16:53;;;;;;;22.67;14.70;;;18.80;99.90;;;;;;5040483;28;20472;-67
2022/07/25 02:19:20;;;;;;;16.27;14.57;;;18.80;99.90;;;;;;5040775;28;20484;-67
2022/07/25 02:21:47;;;;;;;24.40;16.27;;;18.80;99.90;;;;;;5041397;28;20936;-66
2022/07/25 02:24:14;;;;;;;27.33;16.10;;;18.80;99.90;;;;;;5042265;28;20768;-67
2022/07/25 02:26:41;;;;;;;28.97;15.47;;;18.80;99.90;;;;;;5046242;28;20456;-66
2022/07/25 02:29:12;;;;;;;19.50;17.70;;;18.80;99.90;;;;;;5044084;28;20986;-66
2022/07/25 02:31:38;;;;;;;18.10;16.10;;;18.80;99.90;;;;;;5041608;28;20541;-66
2022/07/25 02:34:07;;;;;;;16.73;15.00;;;18.80;99.90;;;;;;5040742;28;20473;-66
2022/07/25 02:36:35;;;;;;;19.40;15.97;;;18.80;99.90;;;;;;5041938;28;20967;-67
2022/07/25 02:39:02;;;;;;;18.47;14.90;;;18.80;99.90;;;;;;5044635;28;20523;-66
2022/07/25 02:41:30;;;;;;;23.10;18.47;;;18.70;99.90;;;;;;5042661;28;20460;-67
2022/07/25 02:43:57;;;;;;;18.70;15.90;;;18.70;99.90;;;;;;5040151;28;20534;-67
2022/07/25 02:46:26;;;;;;;15.77;14.47;;;18.70;99.90;;;;;;5042344;28;20457;-67
2022/07/25 02:48:53;;;;;;;17.60;15.17;;;18.60;99.90;;;;;;5044746;28;20475;-67
2022/07/25 02:51:20;;;;;;;21.43;15.13;;;18.60;99.90;;;;;;5039336;28;20472;-67
2022/07/25 02:53:47;;;;;;;18.57;14.83;;;18.60;99.90;;;;;;5048582;28;20470;-66
2022/07/25 02:56:15;;;;;;;20.67;16.77;;;18.60;99.90;;;;;;5043676;28;20484;-66
2022/07/25 02:58:41;;;;;;;15.93;14.53;;;18.60;99.90;;;;;;5041436;28;20513;-67
2022/07/25 03:01:09;;;;;;;15.07;13.67;;;18.60;99.90;;;;;;5040334;28;20981;-67
2022/07/25 03:03:37;;;;;;;24.33;14.50;;;18.60;99.90;;;;;;5039652;28;21006;-67
2022/07/25 03:06:04;;;;;;;31.83;15.73;;;18.70;99.90;;;;;;5043080;28;20464;-67
2022/07/25 03:08:32;;;;;;;27.13;14.47;;;18.80;99.90;;;;;;5040553;28;20457;-66
2022/07/25 03:10:59;;;;;;;18.03;15.50;;;18.90;99.90;;;;;;5038825;28;20848;-67
2022/07/25 03:13:26;;;;;;;17.67;15.97;;;19.00;99.90;;;;;;5043012;28;20467;-67
2022/07/25 03:15:53;;;;;;;16.70;14.00;;;19.10;99.90;;;;;;5033943;28;20501;-67
2022/07/25 03:18:20;;;;;;;17.17;14.70;;;19.20;99.90;;;;;;5042462;28;20460;-66
2022/07/25 03:20:49;;;;;;;24.43;15.10;;;19.30;99.90;;;;;;5039734;28;20491;-66
2022/07/25 03:23:16;;;;;;;21.10;15.30;;;19.30;99.90;;;;;;5039111;28;20947;-66
2022/07/25 03:25:43;;;;;;;17.53;15.63;;;19.40;99.90;;;;;;5037134;28;20472;-67
2022/07/25 03:28:10;;;;;;;22.03;14.70;;;19.40;99.90;;;;;;5041974;28;20457;-66
2022/07/25 03:30:37;;;;;;;22.50;15.90;;;19.50;99.90;;;;;;5036111;28;20497;-67
2022/07/25 03:33:04;;;;;;;22.70;16.20;;;19.60;99.90;;;;;;5042554;28;20460;-66
2022/07/25 03:35:31;;;;;;;30.63;16.63;;;19.60;99.90;;;;;;5037921;28;20465;-67
2022/07/25 03:37:59;;;;;;;22.53;15.97;;;19.70;99.90;;;;;;5043331;28;20452;-66
2022/07/25 03:40:27;;;;;;;18.70;16.47;;;19.70;99.90;;;;;;5035033;28;20461;-67
2022/07/25 03:42:53;;;;;;;26.90;15.30;;;19.80;99.90;;;;;;5041581;28;20974;-66
2022/07/25 03:45:21;;;;;;;28.23;16.37;;;19.80;99.90;;;;;;5042404;28;20464;-67
2022/07/25 03:47:48;;;;;;;22.07;15.60;;;19.80;99.90;;;;;;5042570;28;20824;-66
2022/07/25 03:50:15;;;;;;;21.47;16.07;;;19.80;99.90;;;;;;5039776;28;20498;-67
2022/07/25 03:52:42;;;;;;;17.30;15.63;;;19.80;99.90;;;;;;5039567;28;20456;-66
2022/07/25 03:55:11;;;;;;;17.17;15.43;;;19.90;99.90;;;;;;5044211;28;20468;-67
2022/07/25 03:57:38;;;;;;;22.67;16.47;;;19.90;99.90;;;;;;5038523;28;20460;-67
2022/07/25 04:00:08;;;;;;;18.63;16.20;;;19.90;99.90;;;;;;5044870;28;20464;-67
2022/07/25 04:02:36;;;;;;;17.97;16.27;;;20.00;99.90;;;;;;5017966;28;20871;-68
2022/07/25 04:05:03;;;;;;;26.27;17.50;;;20.00;99.90;;;;;;5012582;28;20464;-67
2022/07/25 04:07:31;;;;;;;24.77;17.17;;;20.00;99.90;;;;;;5019748;28;20997;-67
2022/07/25 04:09:58;;;;;;;25.83;16.87;;;20.00;99.90;;;;;;5026857;28;20495;-66
2022/07/25 04:12:27;;;;;;;21.37;16.93;;;20.10;99.90;;;;;;5040278;28;20882;-66
2022/07/25 04:14:53;;;;;;;23.03;17.47;;;20.10;99.90;;;;;;4990250;28;20495;-67
2022/07/25 04:20:01;;;;;;;18.83;16.93;;;20.20;99.90;;;;;;5012346;28;20735;-66
2022/07/25 04:22:28;;;;;;;16.97;15.50;;;20.30;99.90;;;;;;5010137;28;21164;-67
2022/07/25 04:24:55;;;;;;;20.67;17.80;;;20.40;99.90;;;;;;5012544;28;20592;-67
2022/07/25 04:27:22;;;;;;;19.37;16.63;;;20.40;99.90;;;;;;5014795;28;20551;-67
2022/07/25 04:29:50;;;;;;;18.37;16.53;;;20.50;99.90;;;;;;5014503;28;20865;-67
2022/07/25 04:32:18;;;;;;;19.07;17.77;;;20.50;99.90;;;;;;5014614;28;20472;-67
2022/07/25 04:34:45;;;;;;;18.17;16.47;;;20.50;99.90;;;;;;5014457;28;20970;-68
2022/07/25 04:37:12;;;;;;;17.57;16.07;;;20.60;99.90;;;;;;5015454;28;20456;-67
2022/07/25 04:39:39;;;;;;;18.97;17.20;;;20.60;99.90;;;;;;5014553;28;21029;-67
2022/07/25 04:42:06;;;;;;;18.10;16.83;;;20.70;99.90;;;;;;5016258;28;20648;-67
2022/07/25 04:44:33;;;;;;;18.50;17.00;;;20.80;99.90;;;;;;5016873;28;21235;-67
2022/07/25 04:47:01;;;;;;;18.33;17.00;;;20.90;99.90;;;;;;5014816;28;20998;-67
2022/07/25 04:49:28;;;;;;;18.10;16.47;;;20.90;99.90;;;;;;5014353;28;20464;-67
2022/07/25 04:51:56;;;;;;;18.40;17.00;;;20.90;99.90;;;;;;5017389;28;22354;-67
2022/07/25 04:54:22;;;;;;;19.33;17.63;;;21.00;99.90;;;;;;5013074;28;20833;-67
2022/07/25 04:56:50;;;;;;;20.07;18.07;;;21.00;99.90;;;;;;5015132;28;20491;-67
2022/07/25 04:59:17;;;;;;;18.33;16.83;;;21.10;99.90;;;;;;5016163;28;20463;-67
2022/07/25 05:01:44;;;;;;;18.57;17.37;;;21.20;99.90;;;;;;5013771;28;23199;-67
2022/07/25 05:04:12;;;;;;;19.07;17.47;;;21.30;99.90;;;;;;5015169;28;20461;-67
2022/07/25 05:06:39;;;;;;;20.23;18.60;;;21.40;99.90;;;;;;5018389;28;20471;-68
2022/07/25 05:09:06;;;;;;;19.10;17.50;;;21.50;99.90;;;;;;5019320;28;20464;-67
2022/07/25 05:11:33;;;;;;;18.33;16.80;;;21.70;99.90;;;;;;5018068;28;20506;-67
2022/07/25 05:14:00;;;;;;;18.70;17.07;;;21.80;99.90;;;;;;5018938;28;20475;-67
2022/07/25 05:16:26;;;;;;;19.30;17.83;;;22.00;99.90;;;;;;5019442;28;20500;-66
2022/07/25 05:18:53;;;;;;;18.33;17.03;;;22.10;99.90;;;;;;5019323;28;20509;-67
2022/07/25 05:21:22;;;;;;;19.23;17.73;;;22.20;99.90;;;;;;5019768;28;21237;-68
2022/07/25 05:23:49;;;;;;;18.83;17.43;;;22.30;99.90;;;;;;5018523;28;21228;-68
2022/07/25 05:26:16;;;;;;;18.30;16.70;;;22.30;99.90;;;;;;5018192;28;20468;-68
2022/07/25 05:28:43;;;;;;;18.13;16.73;;;22.30;99.90;;;;;;5019341;28;20475;-67
2022/07/25 05:31:10;;;;;;;19.73;17.80;;;22.30;99.90;;;;;;5018215;28;20529;-69
2022/07/25 05:33:37;;;;;;;18.47;16.87;;;22.40;99.90;;;;;;5017845;28;20469;-67
2022/07/25 05:36:04;;;;;;;20.30;17.00;;;22.50;99.90;;;;;;5018705;28;20460;-68
2022/07/25 05:38:32;;;;;;;18.43;17.03;;;22.60;99.90;;;;;;5018440;28;21055;-67
2022/07/25 05:40:59;;;;;;;19.00;17.53;;;22.70;99.90;;;;;;5018699;28;20970;-66
2022/07/25 05:43:26;;;;;;;18.83;17.30;;;22.80;99.90;;;;;;5018719;28;20463;-66
2022/07/25 05:45:53;;;;;;;17.70;16.50;;;23.10;99.90;;;;;;5018582;28;20476;-67
2022/07/25 05:48:20;;;;;;;19.40;17.33;;;23.20;99.90;;;;;;5017427;28;20506;-67
2022/07/25 05:50:47;;;;;;;20.17;18.07;;;23.30;99.90;;;;;;5026947;28;20622;-66
2022/07/25 05:53:14;;;;;;;20.10;18.37;;;23.50;99.90;;;;;;5037922;28;20461;-67
2022/07/25 05:55:42;;;;;;;19.97;18.27;;;23.80;99.90;;;;;;5043648;28;20459;-67
2022/07/25 05:58:09;;;;;;;20.03;17.90;;;24.00;99.90;;;;;;5036574;28;20866;-68
2022/07/25 06:00:36;;;;;;;20.50;18.30;;;24.20;99.90;;;;;;5016463;28;20479;-68
2022/07/25 06:03:03;;;;;;;18.87;17.43;;;24.30;99.90;;;;;;5017977;28;20456;-68
2022/07/25 06:05:30;;;;;;;18.63;17.27;;;24.40;99.90;;;;;;5017449;28;20551;-67
2022/07/25 06:07:57;;;;;;;19.73;17.90;;;24.60;99.90;;;;;;5017825;28;20457;-67
2022/07/25 06:10:24;;;;;;;24.03;17.10;;;24.80;99.90;;;;;;5017349;28;20494;-68
2022/07/25 06:12:53;;;;;;;19.63;18.17;;;25.00;99.90;;;;;;5017449;28;20452;-68
2022/07/25 06:15:20;;;;;;;18.90;17.03;;;25.10;99.90;;;;;;5017310;28;20488;-67
2022/07/25 06:17:47;;;;;;;19.17;17.67;;;25.30;99.90;;;;;;5018602;28;20764;-67
2022/07/25 06:20:14;;;;;;;19.07;17.37;;;25.50;99.90;;;;;;5017656;28;20613;-67
2022/07/25 06:22:41;;;;;;;18.67;17.00;;;25.60;99.90;;;;;;5017536;28;20812;-67
2022/07/25 06:25:08;;;;;;;19.10;17.53;;;25.80;99.90;;;;;;5017089;28;20472;-68
2022/07/25 06:27:37;;;;;;;20.93;18.10;;;25.90;99.90;;;;;;5016195;28;20491;-68
2022/07/25 06:30:07;;;;;;;19.47;17.73;;;26.00;99.90;;;;;;5017206;28;20464;-67
2022/07/25 06:32:34;;;;;;;19.80;18.13;;;26.10;99.90;;;;;;5017708;28;21092;-67
2022/07/25 06:35:01;;;;;;;26.83;19.67;;;26.10;99.90;;;;;;5017395;28;20491;-67
2022/07/25 06:37:27;;;;;;;20.27;18.57;;;26.30;99.90;;;;;;5017134;28;20465;-67
2022/07/25 06:39:54;;;;;;;20.93;19.00;;;26.40;99.90;;;;;;5015726;28;21143;-68
2022/07/25 06:42:21;;;;;;;20.93;18.37;;;26.40;99.90;;;;;;5017125;28;20456;-68
2022/07/25 06:44:49;;;;;;;21.93;18.73;;;26.40;99.90;;;;;;5016469;28;20530;-68
2022/07/25 06:47:18;;;;;;;23.97;19.50;;;26.60;99.90;;;;;;5016972;28;20546;-68
2022/07/25 06:49:44;;;;;;;19.97;18.50;;;26.80;99.90;;;;;;5016797;28;20461;-67
2022/07/25 06:54:52;;;;;;;21.90;19.63;;;27.60;99.90;;;;;;5017179;28;20822;-68
2022/07/25 06:57:19;;;;;;;20.20;18.67;;;27.80;99.90;;;;;;5015098;28;20596;-67
2022/07/25 06:59:46;;;;;;;19.70;18.10;;;28.00;99.90;;;;;;5016309;28;21274;-67
2022/07/25 07:02:13;;;;;;;18.93;17.67;;;28.40;99.90;;;;;;5030883;28;20451;-67
2022/07/25 07:04:42;;;;;;;19.80;18.20;;;28.60;99.90;;;;;;5038186;28;20469;-68
2022/07/25 07:07:09;;;;;;;20.40;18.70;;;28.70;99.90;;;;;;5036795;28;20462;-68
2022/07/25 07:09:37;;;;;;;20.07;18.43;;;28.40;99.90;;;;;;5043355;28;20467;-67
2022/07/25 07:12:04;;;;;;;20.10;18.60;;;28.50;99.90;;;;;;5016896;28;20491;-68
2022/07/25 07:14:31;;;;;;;18.30;17.20;;;28.40;99.90;;;;;;5015829;28;21227;-67
2022/07/25 07:16:58;;;;;;;20.50;19.30;;;28.70;99.90;;;;;;5017391;28;20475;-67
2022/07/25 07:19:25;;;;;;;19.90;18.60;;;28.80;99.90;;;;;;5015816;28;20561;-68
2022/07/25 07:21:53;;;;;;;19.10;18.00;;;28.90;99.90;;;;;;5016648;28;20517;-69
2022/07/25 07:24:20;;;;;;;20.00;18.57;;;29.00;99.90;;;;;;5016370;28;20802;-67
2022/07/25 07:26:47;;;;;;;20.33;19.13;;;28.80;99.90;;;;;;5016051;28;21004;-68
2022/07/25 07:29:14;;;;;;;19.23;18.13;;;28.80;99.90;;;;;;5015686;28;21094;-68
2022/07/25 07:31:41;;;;;;;19.53;17.90;;;28.60;99.90;;;;;;5016439;28;20496;-68
2022/07/25 07:34:08;;;;;;;19.93;18.73;;;28.60;99.90;;;;;;5016338;28;20468;-68
2022/07/25 07:36:35;;;;;;;19.73;18.43;;;28.50;99.90;;;;;;5017231;28;20472;-68
2022/07/25 07:39:04;;;;;;;19.77;18.47;;;28.30;99.90;;;;;;5016668;28;21399;-67
2022/07/25 07:41:31;;;;;;;20.67;19.20;;;28.30;99.90;;;;;;5015679;28;20467;-68
2022/07/25 07:43:57;;;;;;;21.43;19.93;;;28.30;99.90;;;;;;5015962;28;20972;-68
2022/07/25 07:46:24;;;;;;;19.77;18.47;;;28.30;99.90;;;;;;5015006;28;20463;-68
2022/07/25 07:48:51;;;;;;;21.83;20.00;;;28.30;99.90;;;;;;5015077;28;20476;-68
2022/07/25 07:51:18;;;;;;;20.57;18.90;;;28.30;99.90;;;;;;5016297;28;20601;-68
2022/07/25 07:56:30;;;;;;;19.20;17.90;;;27.90;99.90;;;;;;5014188;28;20522;-67
2022/07/25 07:58:57;;;;;;;19.07;17.87;;;27.70;99.90;;;;;;5015884;28;20479;-68
2022/07/25 08:01:25;;;;;;;21.03;19.37;;;27.50;99.90;;;;;;5025105;28;20873;-68
2022/07/25 08:03:52;;;;;;;20.10;18.50;;;27.50;99.90;;;;;;5034867;28;20456;-67
2022/07/25 08:06:20;;;;;;;18.40;17.30;;;27.10;99.90;;;;;;5043198;28;20448;-67
2022/07/25 08:08:46;;;;;;;20.53;18.87;;;27.10;99.90;;;;;;5039470;28;20468;-67
2022/07/25 08:11:13;;;;;;;19.53;17.90;;;27.20;99.90;;;;;;5019456;28;20495;-68
2022/07/25 08:13:42;;;;;;;20.27;18.97;;;27.20;99.90;;;;;;5015129;28;21458;-67
2022/07/25 08:16:10;;;;;;;19.90;18.77;;;27.10;99.90;;;;;;5014353;28;20488;-68
2022/07/25 08:18:37;;;;;;;20.23;18.93;;;27.10;99.90;;;;;;5015287;28;20476;-69
2022/07/25 08:21:05;;;;;;;20.10;18.70;;;26.90;99.90;;;;;;5015139;28;20471;-68
2022/07/25 08:23:33;;;;;;;20.43;19.10;;;26.60;99.90;;;;;;5015886;28;20460;-68
2022/07/25 08:26:01;;;;;;;20.60;19.10;;;26.40;99.90;;;;;;5014707;28;21123;-67
2022/07/25 08:28:28;;;;;;;18.87;17.47;;;26.30;99.90;;;;;;5016480;28;20839;-67
2022/07/25 08:30:57;;;;;;;19.87;18.03;;;26.50;99.90;;;;;;5014651;28;20473;-67
2022/07/25 08:33:25;;;;;;;19.60;18.40;;;26.50;99.90;;;;;;5014683;28;21032;-68
2022/07/25 08:35:54;;;;;;;20.07;18.67;;;26.40;99.90;;;;;;5013538;28;20475;-67
2022/07/25 08:38:22;;;;;;;19.10;17.90;;;26.40;99.90;;;;;;5012404;28;21184;-67
2022/07/25 08:40:49;;;;;;;20.33;18.80;;;26.40;99.90;;;;;;5013381;28;20472;-67
2022/07/25 08:43:17;;;;;;;19.93;18.53;;;26.80;99.90;;;;;;5013507;28;21016;-67
2022/07/25 08:45:46;;;;;;;20.13;18.80;;;27.30;99.90;;;;;;5014007;28;20472;-68
2022/07/25 08:48:16;;;;;;;20.20;18.80;;;27.50;99.90;;;;;;5015243;28;20460;-67
2022/07/25 08:50:44;;;;;;;22.13;18.33;;;27.70;99.90;;;;;;5015664;28;20468;-68
2022/07/25 08:53:11;;;;;;;18.93;17.63;;;28.10;99.90;;;;;;5016125;28;20801;-68
2022/07/25 08:55:39;;;;;;;18.10;16.90;;;27.90;99.90;;;;;;5014732;28;20491;-67
2022/07/25 08:58:06;;;;;;;19.83;18.63;;;27.80;99.90;;;;;;5015631;28;20487;-67
2022/07/25 09:00:32;;;;;;;19.10;17.70;;;27.90;99.90;;;;;;5014605;28;20460;-67
2022/07/25 09:03:01;;;;;;;19.30;18.00;;;27.70;99.90;;;;;;5015094;28;20542;-67
2022/07/25 09:05:31;;;;;;;18.80;17.60;;;27.70;99.90;;;;;;5014202;28;20480;-68
2022/07/25 09:08:05;;;;;;;19.90;18.50;;;28.40;99.90;;;;;;5014936;28;20995;-68
2022/07/25 09:10:32;;;;;;;19.80;18.40;;;28.90;99.90;;;;;;5014486;28;20463;-68
2022/07/25 09:13:02;;;;;;;18.97;17.73;;;28.90;99.40;;;;;;5014383;28;20867;-68
2022/07/25 09:15:31;;;;;;;18.83;16.83;;;29.00;98.90;;;;;;5013926;28;20485;-68
2022/07/25 09:17:59;;;;;;;20.13;18.43;;;29.00;97.30;;;;;;5014034;28;20472;-68
2022/07/25 09:20:39;;;;;;;18.00;17.00;;;28.70;97.90;;;;;;5013954;28;21022;-68
2022/07/25 09:23:06;;;;;;;18.17;17.00;;;28.60;97.90;;;;;;5015340;28;20519;-67
2022/07/25 09:25:34;;;;;;;17.90;16.70;;;28.50;97.20;;;;;;5014654;28;20468;-68
2022/07/25 09:28:10;;;;;;;17.30;16.27;;;28.20;96.40;;;;;;5015100;28;20456;-68
2022/07/25 09:30:38;;;;;;;18.10;17.00;;;28.00;96.50;;;;;;5014070;28;20467;-68
2022/07/25 09:33:05;;;;;;;17.40;16.30;;;28.00;96.70;;;;;;5015312;28;21761;-67
2022/07/25 09:35:33;;;;;;;18.63;17.40;;;27.80;96.70;;;;;;5014019;28;20471;-68
2022/07/25 09:38:12;;;;;;;17.93;16.80;;;27.80;97.20;;;;;;5014497;28;20545;-67
2022/07/25 09:40:39;;;;;;;17.37;16.00;;;28.10;96.00;;;;;;5013760;28;20998;-67
2022/07/25 09:43:07;;;;;;;17.00;16.10;;;27.90;95.00;;;;;;5014542;28;20472;-68
2022/07/25 09:45:34;;;;;;;16.20;15.20;;;27.60;94.50;;;;;;5014602;28;20831;-68
2022/07/25 09:48:02;;;;;;;17.43;16.23;;;27.60;94.60;;;;;;5013467;28;20641;-68
2022/07/25 09:50:31;;;;;;;17.30;15.60;;;27.60;94.70;;;;;;5013236;28;20467;-68
2022/07/25 09:53:01;;;;;;;16.10;15.20;;;27.70;94.90;;;;;;5018159;28;20555;-67
2022/07/25 09:55:30;;;;;;;16.80;15.97;;;27.70;94.00;;;;;;5017116;28;20488;-68
2022/07/25 09:57:57;;;;;;;17.57;16.13;;;27.80;94.70;;;;;;5018564;28;21046;-68
2022/07/25 10:00:26;;;;;;;15.70;14.83;;;27.80;93.10;;;;;;5017965;28;21354;-67
2022/07/25 10:03:16;;;;;;;16.90;15.70;;;27.80;92.80;;;;;;5015534;28;20468;-68
2022/07/25 10:06:11;;;;;;;18.07;16.93;;;27.80;93.00;;;;;;5017383;28;20461;-68
2022/07/25 10:08:39;;;;;;;17.47;16.57;;;27.80;93.60;;;;;;5016023;28;20470;-68
2022/07/25 10:11:19;;;;;;;17.40;16.30;;;28.00;93.20;;;;;;5017889;28;21016;-68
2022/07/25 10:13:46;;;;;;;17.03;16.00;;;28.10;93.80;;;;;;5018163;28;20455;-67
2022/07/25 10:16:17;;;;;;;17.53;16.30;;;28.20;93.70;;;;;;5018127;28;20754;-68
2022/07/25 10:18:49;;;;;;;16.80;15.60;;;28.30;93.80;;;;;;5018851;28;20957;-68
2022/07/25 10:21:17;;;;;;;17.90;16.70;;;28.60;93.40;;;;;;5018422;28;20806;-68
2022/07/25 10:23:45;;;;;;;17.80;16.80;;;29.50;92.40;;;;;;5017752;28;20487;-68
2022/07/25 10:26:16;;;;;;;18.00;16.53;;;30.00;90.90;;;;;;5017056;28;20559;-67
2022/07/25 10:28:45;;;;;;;17.23;16.10;;;30.30;90.20;;;;;;5017955;28;20842;-68
2022/07/25 10:31:17;;;;;;;17.23;16.03;;;30.30;90.60;;;;;;5017275;28;20464;-67
2022/07/25 10:33:48;;;;;;;17.60;16.43;;;30.10;90.70;;;;;;5019179;28;21479;-67
2022/07/25 10:36:15;;;;;;;17.53;16.40;;;30.20;90.30;;;;;;5043415;28;20673;-68
2022/07/25 10:38:44;;;;;;;17.83;16.70;;;29.90;89.60;;;;;;5020824;28;20487;-68
2022/07/25 10:41:15;;;;;;;18.00;17.00;;;29.80;90.50;;;;;;5016938;28;21617;-69
2022/07/25 10:43:45;;;;;;;16.70;15.80;;;30.00;89.80;;;;;;5017020;28;20467;-68
2022/07/25 10:46:13;;;;;;;17.37;16.27;;;29.50;90.20;;;;;;5016369;28;21374;-68
2022/07/25 10:48:41;;;;;;;18.63;16.93;;;29.40;89.40;;;;;;5017606;28;20514;-68
2022/07/25 10:51:11;;;;;;;17.23;16.33;;;29.90;90.10;;;;;;5016369;28;20463;-68
2022/07/25 10:53:44;;;;;;;19.70;17.67;;;30.00;87.40;;;;;;5016545;28;20920;-68
2022/07/25 10:56:15;;;;;;;18.17;17.00;;;30.50;86.90;;;;;;5017563;28;21519;-67
2022/07/25 10:58:44;;;;;;;17.40;16.47;;;30.60;85.90;;;;;;5019098;28;21276;-68
2022/07/25 11:01:12;;;;;;;17.30;16.03;;;30.30;86.60;;;;;;5018584;28;20472;-68
2022/07/25 11:03:43;;;;;;;17.03;16.13;;;30.20;87.50;;;;;;5013305;28;20989;-68
2022/07/25 11:06:11;;;;;;;17.90;16.43;;;30.10;86.30;;;;;;5015305;28;20856;-68
2022/07/25 11:08:37;;;;;;;17.27;16.27;;;29.90;86.90;;;;;;5015660;28;20465;-67
2022/07/25 11:11:04;;;;;;;17.73;16.40;;;29.80;86.70;;;;;;5017165;28;20566;-67
2022/07/25 11:13:37;;;;;;;16.30;15.30;;;29.80;87.80;;;;;;5017160;28;21097;-68
2022/07/25 11:16:04;;;;;;;17.20;16.27;;;29.90;88.20;;;;;;5015818;28;20491;-68
2022/07/25 11:18:33;;;;;;;18.10;17.10;;;30.40;89.60;;;;;;5017114;28;20478;-68
2022/07/25 11:21:00;;;;;;;18.50;17.50;;;31.00;87.10;;;;;;5016624;28;21026;-67
2022/07/25 11:23:27;;;;;;;17.63;16.33;;;31.70;84.90;;;;;;5015780;28;20476;-68
2022/07/25 11:26:04;;;;;;;17.60;16.60;;;32.30;84.30;;;;;;5016580;28;20542;-68
2022/07/25 11:28:45;;;;;;;17.90;16.70;;;32.20;83.90;;;;;;5017216;28;20888;-68
2022/07/25 11:31:13;;;;;;;17.70;16.47;;;31.90;84.40;;;;;;5017722;28;20518;-68
2022/07/25 11:33:43;;;;;;;17.93;16.80;;;31.70;85.00;;;;;;5016980;28;20488;-67
2022/07/25 11:36:10;;;;;;;17.40;16.40;;;31.80;86.30;;;;;;5016181;28;20444;-69
2022/07/25 11:38:39;;;;;;;17.00;15.83;;;32.20;84.10;;;;;;5017013;28;21073;-68
2022/07/25 11:41:07;;;;;;;16.53;15.63;;;32.30;84.30;;;;;;5017189;28;20849;-68
2022/07/25 11:43:34;;;;;;;17.17;16.37;;;32.60;83.40;;;;;;5016296;28;20461;-68
2022/07/25 11:46:05;;;;;;;17.77;16.30;;;33.50;81.80;;;;;;5017788;28;20471;-68
2022/07/25 11:48:34;;;;;;;17.47;16.33;;;33.50;81.00;;;;;;5016929;28;20970;-68
2022/07/25 11:51:16;;;;;;;17.57;16.37;;;32.90;79.30;;;;;;5016736;28;20459;-68
2022/07/25 11:53:45;;;;;;;17.77;16.70;;;32.00;81.90;;;;;;5015532;28;20493;-69
2022/07/25 11:56:18;;;;;;;16.90;16.00;;;31.10;84.40;;;;;;5015390;28;20540;-68
2022/07/25 11:58:56;;;;;;;16.63;15.73;;;30.90;84.30;;;;;;5015586;28;21955;-68
2022/07/25 12:01:26;;;;;;;16.77;15.47;;;31.00;85.50;;;;;;5014364;28;21019;-69
2022/07/25 12:03:53;;;;;;;16.50;15.40;;;30.70;86.60;;;;;;5016045;28;20465;-68
2022/07/25 12:06:19;;;;;;;16.87;15.90;;;30.80;87.40;;;;;;5015192;28;20672;-67
2022/07/25 12:08:46;;;;;;;17.00;16.03;;;30.50;88.40;;;;;;5015068;28;20462;-69
2022/07/25 12:11:18;;;;;;;16.47;15.53;;;30.30;88.40;;;;;;5018051;28;20477;-68
2022/07/25 12:13:45;;;;;;;16.17;15.17;;;30.50;90.20;;;;;;5014982;28;20791;-68
2022/07/25 12:16:12;;;;;;;16.80;15.90;;;31.20;89.80;;;;;;5016026;28;20482;-68
2022/07/25 12:18:40;;;;;;;17.70;16.60;;;32.00;88.70;;;;;;5015549;28;20567;-68
2022/07/25 12:21:07;;;;;;;17.00;15.90;;;32.10;85.70;;;;;;5015121;28;20499;-68
2022/07/25 12:23:34;;;;;;;16.10;15.20;;;31.60;87.10;;;;;;5014351;28;20453;-68
2022/07/25 12:26:01;;;;;;;16.70;15.80;;;31.60;87.70;;;;;;5014197;28;22479;-68
2022/07/25 12:28:28;;;;;;;21.13;19.37;;;32.10;86.00;;;;;;5015054;28;20464;-69
2022/07/25 12:30:55;;;;;;;16.90;15.17;;;32.50;84.40;;;;;;5014871;28;21157;-67
2022/07/25 12:33:22;;;;;;;16.27;15.40;;;31.90;85.90;;;;;;5014384;28;20499;-68
2022/07/25 12:35:50;;;;;;;16.23;15.30;;;31.30;88.30;;;;;;5014845;28;20558;-68
2022/07/25 12:38:17;;;;;;;15.90;15.10;;;31.90;87.90;;;;;;5013786;28;20472;-68
2022/07/25 12:40:44;;;;;;;16.63;15.70;;;31.80;87.80;;;;;;5015729;28;20467;-68